sensor_id;sensor_type;location;lat;lon;timestamp;P1;durP1;ratioP1;P2;durP2;ratioP2
78406;SDS011;67692;51.074;-1.790;2023-05-07T00:00:50;14.93;;;5.53;;
78406;SDS011;67692;51.074;-1.790;2023-05-07T00:03:17;15.98;;;5.85;;
78406;SDS011;67692;51.074;-1.790;2023-05-07T00:05:44;12.55;;;5.43;;
78406;SDS011;67692;51.074;-1.790;2023-05-07T00:08:11;13.30;;;5.35;;
78406;SDS011;67692;51.074;-1.790;2023-05-07T00:10:38;15.18;;;5.50;;
78406;SDS011;67692;51.074;-1.790;2023-05-07T00:13:04;13.30;;;5.43;;
78406;SDS011;67692;51.074;-1.790;2023-05-07T00:15:31;12.85;;;5.28;;
78406;SDS011;67692;51.074;-1.790;2023-05-07T00:17:59;11.88;;;5.35;;
78406;SDS011;67692;51.074;-1.790;2023-05-07T00:20:25;16.70;;;4.82;;
78406;SDS011;67692;51.074;-1.790;2023-05-07T00:22:52;23.02;;;5.18;;
78406;SDS011;67692;51.074;-1.790;2023-05-07T00:25:19;23.95;;;5.22;;
78406;SDS011;67692;51.074;-1.790;2023-05-07T00:27:45;15.77;;;5.55;;
78406;SDS011;67692;51.074;-1.790;2023-05-07T00:30:12;22.90;;;4.70;;
78406;SDS011;67692;51.074;-1.790;2023-05-07T00:32:39;36.53;;;5.35;;
78406;SDS011;67692;51.074;-1.790;2023-05-07T00:35:08;18.48;;;4.03;;
78406;SDS011;67692;51.074;-1.790;2023-05-07T00:37:35;42.10;;;4.40;;
78406;SDS011;67692;51.074;-1.790;2023-05-07T00:40:02;19.20;;;4.53;;
78406;SDS011;67692;51.074;-1.790;2023-05-07T00:42:32;11.85;;;4.00;;
78406;SDS011;67692;51.074;-1.790;2023-05-07T00:44:58;19.38;;;3.80;;
78406;SDS011;67692;51.074;-1.790;2023-05-07T00:47:25;10.80;;;3.30;;
78406;SDS011;67692;51.074;-1.790;2023-05-07T00:49:52;9.10;;;3.97;;
78406;SDS011;67692;51.074;-1.790;2023-05-07T00:52:20;8.93;;;3.95;;
78406;SDS011;67692;51.074;-1.790;2023-05-07T00:54:50;9.88;;;3.22;;
78406;SDS011;67692;51.074;-1.790;2023-05-07T00:57:16;7.55;;;3.13;;
78406;SDS011;67692;51.074;-1.790;2023-05-07T00:59:43;10.02;;;3.50;;
78406;SDS011;67692;51.074;-1.790;2023-05-07T01:02:10;7.78;;;3.30;;
78406;SDS011;67692;51.074;-1.790;2023-05-07T01:04:36;7.90;;;3.45;;
78406;SDS011;67692;51.074;-1.790;2023-05-07T01:07:03;6.53;;;3.38;;
78406;SDS011;67692;51.074;-1.790;2023-05-07T01:09:32;7.93;;;3.35;;
78406;SDS011;67692;51.074;-1.790;2023-05-07T01:12:00;9.25;;;3.38;;
78406;SDS011;67692;51.074;-1.790;2023-05-07T01:14:27;14.38;;;3.63;;
78406;SDS011;67692;51.074;-1.790;2023-05-07T01:16:54;10.27;;;3.45;;
78406;SDS011;67692;51.074;-1.790;2023-05-07T01:19:21;8.38;;;3.50;;
78406;SDS011;67692;51.074;-1.790;2023-05-07T01:21:48;8.75;;;3.30;;
78406;SDS011;67692;51.074;-1.790;2023-05-07T01:24:16;12.20;;;2.80;;
78406;SDS011;67692;51.074;-1.790;2023-05-07T01:26:44;10.48;;;3.70;;
78406;SDS011;67692;51.074;-1.790;2023-05-07T01:29:10;10.35;;;3.50;;
78406;SDS011;67692;51.074;-1.790;2023-05-07T01:31:37;12.27;;;3.50;;
78406;SDS011;67692;51.074;-1.790;2023-05-07T01:34:06;8.15;;;3.50;;
78406;SDS011;67692;51.074;-1.790;2023-05-07T01:36:34;24.63;;;4.22;;
78406;SDS011;67692;51.074;-1.790;2023-05-07T01:39:04;9.65;;;2.78;;
78406;SDS011;67692;51.074;-1.790;2023-05-07T01:41:33;6.88;;;3.03;;
78406;SDS011;67692;51.074;-1.790;2023-05-07T01:44:00;16.77;;;3.58;;
78406;SDS011;67692;51.074;-1.790;2023-05-07T01:46:29;9.07;;;3.90;;
78406;SDS011;67692;51.074;-1.790;2023-05-07T01:48:56;8.27;;;3.10;;
78406;SDS011;67692;51.074;-1.790;2023-05-07T01:51:23;11.43;;;3.67;;
78406;SDS011;67692;51.074;-1.790;2023-05-07T01:53:51;18.25;;;3.42;;
78406;SDS011;67692;51.074;-1.790;2023-05-07T01:56:18;8.30;;;3.22;;
78406;SDS011;67692;51.074;-1.790;2023-05-07T01:58:47;12.45;;;3.47;;
78406;SDS011;67692;51.074;-1.790;2023-05-07T02:01:14;8.00;;;3.38;;
78406;SDS011;67692;51.074;-1.790;2023-05-07T02:03:40;7.68;;;3.00;;
78406;SDS011;67692;51.074;-1.790;2023-05-07T02:06:07;12.23;;;3.45;;
78406;SDS011;67692;51.074;-1.790;2023-05-07T02:08:33;13.10;;;3.70;;
78406;SDS011;67692;51.074;-1.790;2023-05-07T02:11:00;13.77;;;4.20;;
78406;SDS011;67692;51.074;-1.790;2023-05-07T02:13:28;8.18;;;3.67;;
78406;SDS011;67692;51.074;-1.790;2023-05-07T02:15:56;9.20;;;3.17;;
78406;SDS011;67692;51.074;-1.790;2023-05-07T02:18:23;9.70;;;3.63;;
78406;SDS011;67692;51.074;-1.790;2023-05-07T02:20:49;11.38;;;3.72;;
78406;SDS011;67692;51.074;-1.790;2023-05-07T02:23:16;7.13;;;3.38;;
78406;SDS011;67692;51.074;-1.790;2023-05-07T02:25:43;9.30;;;4.03;;
78406;SDS011;67692;51.074;-1.790;2023-05-07T02:28:10;6.95;;;3.00;;
78406;SDS011;67692;51.074;-1.790;2023-05-07T02:30:37;6.95;;;3.08;;
78406;SDS011;67692;51.074;-1.790;2023-05-07T02:33:05;7.55;;;3.42;;
78406;SDS011;67692;51.074;-1.790;2023-05-07T02:35:33;9.27;;;3.45;;
78406;SDS011;67692;51.074;-1.790;2023-05-07T02:38:00;7.68;;;3.17;;
78406;SDS011;67692;51.074;-1.790;2023-05-07T02:40:26;8.55;;;3.58;;
78406;SDS011;67692;51.074;-1.790;2023-05-07T02:42:53;9.55;;;3.97;;
78406;SDS011;67692;51.074;-1.790;2023-05-07T02:45:20;7.47;;;3.05;;
78406;SDS011;67692;51.074;-1.790;2023-05-07T02:47:46;10.68;;;3.30;;
78406;SDS011;67692;51.074;-1.790;2023-05-07T02:50:14;8.07;;;3.53;;
78406;SDS011;67692;51.074;-1.790;2023-05-07T02:52:41;8.50;;;3.53;;
78406;SDS011;67692;51.074;-1.790;2023-05-07T02:55:08;8.27;;;3.40;;
78406;SDS011;67692;51.074;-1.790;2023-05-07T02:57:34;6.53;;;3.10;;
78406;SDS011;67692;51.074;-1.790;2023-05-07T03:00:09;7.55;;;3.25;;
78406;SDS011;67692;51.074;-1.790;2023-05-07T03:02:36;7.72;;;3.42;;
78406;SDS011;67692;51.074;-1.790;2023-05-07T03:05:03;6.63;;;2.95;;
78406;SDS011;67692;51.074;-1.790;2023-05-07T03:07:32;8.15;;;3.78;;
78406;SDS011;67692;51.074;-1.790;2023-05-07T03:09:58;8.27;;;3.55;;
78406;SDS011;67692;51.074;-1.790;2023-05-07T03:12:25;7.30;;;3.10;;
78406;SDS011;67692;51.074;-1.790;2023-05-07T03:14:52;7.63;;;3.63;;
78406;SDS011;67692;51.074;-1.790;2023-05-07T03:17:18;9.63;;;3.65;;
78406;SDS011;67692;51.074;-1.790;2023-05-07T03:19:46;10.95;;;4.00;;
78406;SDS011;67692;51.074;-1.790;2023-05-07T03:22:13;7.90;;;3.83;;
78406;SDS011;67692;51.074;-1.790;2023-05-07T03:24:41;11.13;;;5.45;;
78406;SDS011;67692;51.074;-1.790;2023-05-07T03:27:07;11.30;;;4.55;;
78406;SDS011;67692;51.074;-1.790;2023-05-07T03:29:34;10.13;;;4.60;;
78406;SDS011;67692;51.074;-1.790;2023-05-07T03:32:01;11.20;;;4.88;;
78406;SDS011;67692;51.074;-1.790;2023-05-07T03:34:28;12.95;;;4.85;;
78406;SDS011;67692;51.074;-1.790;2023-05-07T03:36:54;16.67;;;6.35;;
78406;SDS011;67692;51.074;-1.790;2023-05-07T03:39:21;15.23;;;5.47;;
78406;SDS011;67692;51.074;-1.790;2023-05-07T03:41:49;19.50;;;6.75;;
78406;SDS011;67692;51.074;-1.790;2023-05-07T03:44:15;12.52;;;5.80;;
78406;SDS011;67692;51.074;-1.790;2023-05-07T03:46:42;17.48;;;6.22;;
78406;SDS011;67692;51.074;-1.790;2023-05-07T03:49:09;16.23;;;6.55;;
78406;SDS011;67692;51.074;-1.790;2023-05-07T03:51:35;18.40;;;6.10;;
78406;SDS011;67692;51.074;-1.790;2023-05-07T03:54:02;18.20;;;7.22;;
78406;SDS011;67692;51.074;-1.790;2023-05-07T03:56:28;19.88;;;6.60;;
78406;SDS011;67692;51.074;-1.790;2023-05-07T03:58:57;19.75;;;7.15;;
78406;SDS011;67692;51.074;-1.790;2023-05-07T04:01:24;19.15;;;7.50;;
78406;SDS011;67692;51.074;-1.790;2023-05-07T04:03:50;17.02;;;6.45;;
78406;SDS011;67692;51.074;-1.790;2023-05-07T04:06:17;19.65;;;6.88;;
78406;SDS011;67692;51.074;-1.790;2023-05-07T04:08:44;14.88;;;6.45;;
78406;SDS011;67692;51.074;-1.790;2023-05-07T04:11:10;16.70;;;7.15;;
78406;SDS011;67692;51.074;-1.790;2023-05-07T04:13:37;17.85;;;7.80;;
78406;SDS011;67692;51.074;-1.790;2023-05-07T04:16:05;14.57;;;6.63;;
78406;SDS011;67692;51.074;-1.790;2023-05-07T04:18:32;20.83;;;6.93;;
78406;SDS011;67692;51.074;-1.790;2023-05-07T04:20:59;16.55;;;6.50;;
78406;SDS011;67692;51.074;-1.790;2023-05-07T04:23:25;19.50;;;6.32;;
78406;SDS011;67692;51.074;-1.790;2023-05-07T04:25:52;15.40;;;6.55;;
78406;SDS011;67692;51.074;-1.790;2023-05-07T04:28:19;16.27;;;6.70;;
78406;SDS011;67692;51.074;-1.790;2023-05-07T04:30:46;25.88;;;8.65;;
78406;SDS011;67692;51.074;-1.790;2023-05-07T04:33:14;19.30;;;7.97;;
78406;SDS011;67692;51.074;-1.790;2023-05-07T04:35:41;15.20;;;7.38;;
78406;SDS011;67692;51.074;-1.790;2023-05-07T04:38:08;22.00;;;8.48;;
78406;SDS011;67692;51.074;-1.790;2023-05-07T04:40:35;20.13;;;8.70;;
78406;SDS011;67692;51.074;-1.790;2023-05-07T04:43:02;21.30;;;9.27;;
78406;SDS011;67692;51.074;-1.790;2023-05-07T04:45:29;22.25;;;9.55;;
78406;SDS011;67692;51.074;-1.790;2023-05-07T04:47:56;26.83;;;10.20;;
78406;SDS011;67692;51.074;-1.790;2023-05-07T04:50:24;22.92;;;10.65;;
78406;SDS011;67692;51.074;-1.790;2023-05-07T04:52:51;28.83;;;9.65;;
78406;SDS011;67692;51.074;-1.790;2023-05-07T04:55:17;28.27;;;10.00;;
78406;SDS011;67692;51.074;-1.790;2023-05-07T04:57:44;27.15;;;9.73;;
78406;SDS011;67692;51.074;-1.790;2023-05-07T05:00:11;23.60;;;9.88;;
78406;SDS011;67692;51.074;-1.790;2023-05-07T05:02:39;24.90;;;10.75;;
78406;SDS011;67692;51.074;-1.790;2023-05-07T05:05:06;25.17;;;10.05;;
78406;SDS011;67692;51.074;-1.790;2023-05-07T05:07:34;25.17;;;11.85;;
78406;SDS011;67692;51.074;-1.790;2023-05-07T05:10:01;27.85;;;11.57;;
78406;SDS011;67692;51.074;-1.790;2023-05-07T05:12:28;34.13;;;12.35;;
78406;SDS011;67692;51.074;-1.790;2023-05-07T05:14:55;25.63;;;11.05;;
78406;SDS011;67692;51.074;-1.790;2023-05-07T05:17:22;27.08;;;10.80;;
78406;SDS011;67692;51.074;-1.790;2023-05-07T05:19:48;29.42;;;11.77;;
78406;SDS011;67692;51.074;-1.790;2023-05-07T05:22:15;23.77;;;11.13;;
78406;SDS011;67692;51.074;-1.790;2023-05-07T05:24:43;23.80;;;10.70;;
78406;SDS011;67692;51.074;-1.790;2023-05-07T05:27:10;27.17;;;10.75;;
78406;SDS011;67692;51.074;-1.790;2023-05-07T05:29:36;26.00;;;10.60;;
78406;SDS011;67692;51.074;-1.790;2023-05-07T05:32:03;28.23;;;11.73;;
78406;SDS011;67692;51.074;-1.790;2023-05-07T05:34:30;27.27;;;10.73;;
78406;SDS011;67692;51.074;-1.790;2023-05-07T05:36:58;25.55;;;11.05;;
78406;SDS011;67692;51.074;-1.790;2023-05-07T05:39:25;28.48;;;11.10;;
78406;SDS011;67692;51.074;-1.790;2023-05-07T05:41:53;28.92;;;10.73;;
78406;SDS011;67692;51.074;-1.790;2023-05-07T05:44:19;29.50;;;11.18;;
78406;SDS011;67692;51.074;-1.790;2023-05-07T05:46:46;23.98;;;11.18;;
78406;SDS011;67692;51.074;-1.790;2023-05-07T05:49:14;26.55;;;11.68;;
78406;SDS011;67692;51.074;-1.790;2023-05-07T05:51:41;27.55;;;10.50;;
78406;SDS011;67692;51.074;-1.790;2023-05-07T05:54:07;27.08;;;10.90;;
78406;SDS011;67692;51.074;-1.790;2023-05-07T05:56:34;29.65;;;12.45;;
78406;SDS011;67692;51.074;-1.790;2023-05-07T05:59:02;24.27;;;10.45;;
78406;SDS011;67692;51.074;-1.790;2023-05-07T06:01:29;23.30;;;11.00;;
78406;SDS011;67692;51.074;-1.790;2023-05-07T06:03:56;29.00;;;11.52;;
78406;SDS011;67692;51.074;-1.790;2023-05-07T06:06:22;24.38;;;10.82;;
78406;SDS011;67692;51.074;-1.790;2023-05-07T06:08:49;26.80;;;11.27;;
78406;SDS011;67692;51.074;-1.790;2023-05-07T06:11:15;29.95;;;11.10;;
78406;SDS011;67692;51.074;-1.790;2023-05-07T06:13:42;28.75;;;11.48;;
78406;SDS011;67692;51.074;-1.790;2023-05-07T06:16:10;31.08;;;11.50;;
78406;SDS011;67692;51.074;-1.790;2023-05-07T06:18:36;29.70;;;10.95;;
78406;SDS011;67692;51.074;-1.790;2023-05-07T06:21:03;26.38;;;11.13;;
78406;SDS011;67692;51.074;-1.790;2023-05-07T06:23:30;29.58;;;11.15;;
78406;SDS011;67692;51.074;-1.790;2023-05-07T06:25:57;26.27;;;11.23;;
78406;SDS011;67692;51.074;-1.790;2023-05-07T06:28:23;26.88;;;10.93;;
78406;SDS011;67692;51.074;-1.790;2023-05-07T06:30:50;29.02;;;11.52;;
78406;SDS011;67692;51.074;-1.790;2023-05-07T06:33:18;25.60;;;11.07;;
78406;SDS011;67692;51.074;-1.790;2023-05-07T06:35:44;30.77;;;10.90;;
78406;SDS011;67692;51.074;-1.790;2023-05-07T06:38:11;25.33;;;10.80;;
78406;SDS011;67692;51.074;-1.790;2023-05-07T06:40:38;24.27;;;10.48;;
78406;SDS011;67692;51.074;-1.790;2023-05-07T06:43:04;26.30;;;10.80;;
78406;SDS011;67692;51.074;-1.790;2023-05-07T06:45:31;27.92;;;11.65;;
78406;SDS011;67692;51.074;-1.790;2023-05-07T06:47:58;26.38;;;10.65;;
78406;SDS011;67692;51.074;-1.790;2023-05-07T06:50:26;22.77;;;12.63;;
78406;SDS011;67692;51.074;-1.790;2023-05-07T06:52:52;28.25;;;11.43;;
78406;SDS011;67692;51.074;-1.790;2023-05-07T06:55:19;27.02;;;10.80;;
78406;SDS011;67692;51.074;-1.790;2023-05-07T06:57:45;25.30;;;10.30;;
78406;SDS011;67692;51.074;-1.790;2023-05-07T07:00:13;21.55;;;9.57;;
78406;SDS011;67692;51.074;-1.790;2023-05-07T07:02:40;25.17;;;10.00;;
78406;SDS011;67692;51.074;-1.790;2023-05-07T07:05:07;24.42;;;9.88;;
78406;SDS011;67692;51.074;-1.790;2023-05-07T07:07:35;24.10;;;10.75;;
78406;SDS011;67692;51.074;-1.790;2023-05-07T07:10:02;24.83;;;10.52;;
78406;SDS011;67692;51.074;-1.790;2023-05-07T07:12:29;22.45;;;9.90;;
78406;SDS011;67692;51.074;-1.790;2023-05-07T07:14:56;23.98;;;10.32;;
78406;SDS011;67692;51.074;-1.790;2023-05-07T07:17:23;25.13;;;10.60;;
78406;SDS011;67692;51.074;-1.790;2023-05-07T07:19:49;21.05;;;8.57;;
78406;SDS011;67692;51.074;-1.790;2023-05-07T07:22:16;23.05;;;8.65;;
78406;SDS011;67692;51.074;-1.790;2023-05-07T07:24:44;22.02;;;9.35;;
78406;SDS011;67692;51.074;-1.790;2023-05-07T07:27:10;22.73;;;8.35;;
78406;SDS011;67692;51.074;-1.790;2023-05-07T07:29:37;18.70;;;7.72;;
78406;SDS011;67692;51.074;-1.790;2023-05-07T07:32:04;20.95;;;9.30;;
78406;SDS011;67692;51.074;-1.790;2023-05-07T07:34:31;23.17;;;9.85;;
78406;SDS011;67692;51.074;-1.790;2023-05-07T07:36:57;23.73;;;9.68;;
78406;SDS011;67692;51.074;-1.790;2023-05-07T07:39:30;24.27;;;9.80;;
78406;SDS011;67692;51.074;-1.790;2023-05-07T07:41:58;32.40;;;10.95;;
78406;SDS011;67692;51.074;-1.790;2023-05-07T07:44:25;26.40;;;10.77;;
78406;SDS011;67692;51.074;-1.790;2023-05-07T07:46:51;22.10;;;9.32;;
78406;SDS011;67692;51.074;-1.790;2023-05-07T07:49:18;21.15;;;8.13;;
78406;SDS011;67692;51.074;-1.790;2023-05-07T07:51:44;19.33;;;7.85;;
78406;SDS011;67692;51.074;-1.790;2023-05-07T07:54:11;21.75;;;9.07;;
78406;SDS011;67692;51.074;-1.790;2023-05-07T07:56:38;24.15;;;8.57;;
78406;SDS011;67692;51.074;-1.790;2023-05-07T07:59:06;17.75;;;7.57;;
78406;SDS011;67692;51.074;-1.790;2023-05-07T08:01:32;24.60;;;9.25;;
78406;SDS011;67692;51.074;-1.790;2023-05-07T08:03:59;17.35;;;8.10;;
78406;SDS011;67692;51.074;-1.790;2023-05-07T08:06:28;30.95;;;12.32;;
78406;SDS011;67692;51.074;-1.790;2023-05-07T08:08:54;29.13;;;13.30;;
78406;SDS011;67692;51.074;-1.790;2023-05-07T08:11:21;24.52;;;11.25;;
78406;SDS011;67692;51.074;-1.790;2023-05-07T08:13:48;21.23;;;10.27;;
78406;SDS011;67692;51.074;-1.790;2023-05-07T08:16:16;28.33;;;14.05;;
78406;SDS011;67692;51.074;-1.790;2023-05-07T08:18:43;20.63;;;9.60;;
78406;SDS011;67692;51.074;-1.790;2023-05-07T08:21:10;19.90;;;8.00;;
78406;SDS011;67692;51.074;-1.790;2023-05-07T08:23:36;17.50;;;7.40;;
78406;SDS011;67692;51.074;-1.790;2023-05-07T08:26:03;17.20;;;7.70;;
78406;SDS011;67692;51.074;-1.790;2023-05-07T08:28:30;20.85;;;8.10;;
78406;SDS011;67692;51.074;-1.790;2023-05-07T08:30:56;16.65;;;8.32;;
78406;SDS011;67692;51.074;-1.790;2023-05-07T08:33:26;21.65;;;7.55;;
78406;SDS011;67692;51.074;-1.790;2023-05-07T08:35:53;19.42;;;8.82;;
78406;SDS011;67692;51.074;-1.790;2023-05-07T08:38:20;19.50;;;7.75;;
78406;SDS011;67692;51.074;-1.790;2023-05-07T08:40:46;15.20;;;7.00;;
78406;SDS011;67692;51.074;-1.790;2023-05-07T08:43:13;16.63;;;7.60;;
78406;SDS011;67692;51.074;-1.790;2023-05-07T08:45:41;14.30;;;7.10;;
78406;SDS011;67692;51.074;-1.790;2023-05-07T08:48:08;15.27;;;7.00;;
78406;SDS011;67692;51.074;-1.790;2023-05-07T08:50:41;14.68;;;6.05;;
78406;SDS011;67692;51.074;-1.790;2023-05-07T08:53:08;16.67;;;7.43;;
78406;SDS011;67692;51.074;-1.790;2023-05-07T08:55:35;13.60;;;6.35;;
78406;SDS011;67692;51.074;-1.790;2023-05-07T08:58:02;13.25;;;5.80;;
78406;SDS011;67692;51.074;-1.790;2023-05-07T09:00:28;12.18;;;5.57;;
78406;SDS011;67692;51.074;-1.790;2023-05-07T09:02:55;15.13;;;6.18;;
78406;SDS011;67692;51.074;-1.790;2023-05-07T09:05:22;14.85;;;6.13;;
78406;SDS011;67692;51.074;-1.790;2023-05-07T09:07:50;16.67;;;6.47;;
78406;SDS011;67692;51.074;-1.790;2023-05-07T09:10:16;14.70;;;6.25;;
78406;SDS011;67692;51.074;-1.790;2023-05-07T09:12:43;15.30;;;6.15;;
78406;SDS011;67692;51.074;-1.790;2023-05-07T09:15:12;15.63;;;5.85;;
78406;SDS011;67692;51.074;-1.790;2023-05-07T09:17:39;13.52;;;5.45;;
78406;SDS011;67692;51.074;-1.790;2023-05-07T09:20:06;14.27;;;5.78;;
78406;SDS011;67692;51.074;-1.790;2023-05-07T09:22:33;14.35;;;6.10;;
78406;SDS011;67692;51.074;-1.790;2023-05-07T09:25:04;13.75;;;5.32;;
78406;SDS011;67692;51.074;-1.790;2023-05-07T09:27:32;12.57;;;5.57;;
78406;SDS011;67692;51.074;-1.790;2023-05-07T09:29:59;11.43;;;5.32;;
78406;SDS011;67692;51.074;-1.790;2023-05-07T09:32:29;12.20;;;5.07;;
78406;SDS011;67692;51.074;-1.790;2023-05-07T09:34:56;8.43;;;4.47;;
78406;SDS011;67692;51.074;-1.790;2023-05-07T09:37:23;14.77;;;5.70;;
78406;SDS011;67692;51.074;-1.790;2023-05-07T09:39:51;10.70;;;4.57;;
78406;SDS011;67692;51.074;-1.790;2023-05-07T09:42:23;8.02;;;3.70;;
78406;SDS011;67692;51.074;-1.790;2023-05-07T09:44:51;10.40;;;3.92;;
78406;SDS011;67692;51.074;-1.790;2023-05-07T09:47:18;11.98;;;5.20;;
78406;SDS011;67692;51.074;-1.790;2023-05-07T09:49:47;10.70;;;3.70;;
78406;SDS011;67692;51.074;-1.790;2023-05-07T09:52:14;9.60;;;3.78;;
78406;SDS011;67692;51.074;-1.790;2023-05-07T09:54:42;9.70;;;4.43;;
78406;SDS011;67692;51.074;-1.790;2023-05-07T09:57:10;8.85;;;4.25;;
78406;SDS011;67692;51.074;-1.790;2023-05-07T09:59:39;12.45;;;4.10;;
78406;SDS011;67692;51.074;-1.790;2023-05-07T10:02:09;9.90;;;3.75;;
78406;SDS011;67692;51.074;-1.790;2023-05-07T10:04:36;11.15;;;3.75;;
78406;SDS011;67692;51.074;-1.790;2023-05-07T10:07:03;11.10;;;3.75;;
78406;SDS011;67692;51.074;-1.790;2023-05-07T10:09:30;8.95;;;3.50;;
78406;SDS011;67692;51.074;-1.790;2023-05-07T10:11:58;10.35;;;3.80;;
78406;SDS011;67692;51.074;-1.790;2023-05-07T10:14:25;12.45;;;3.92;;
78406;SDS011;67692;51.074;-1.790;2023-05-07T10:16:55;8.57;;;3.53;;
78406;SDS011;67692;51.074;-1.790;2023-05-07T10:19:23;12.52;;;3.53;;
78406;SDS011;67692;51.074;-1.790;2023-05-07T10:21:51;11.00;;;3.53;;
78406;SDS011;67692;51.074;-1.790;2023-05-07T10:24:22;12.35;;;4.35;;
78406;SDS011;67692;51.074;-1.790;2023-05-07T10:26:52;11.93;;;3.80;;
78406;SDS011;67692;51.074;-1.790;2023-05-07T10:29:21;10.02;;;3.22;;
78406;SDS011;67692;51.074;-1.790;2023-05-07T10:31:58;9.45;;;3.70;;
78406;SDS011;67692;51.074;-1.790;2023-05-07T10:34:37;7.55;;;3.25;;
78406;SDS011;67692;51.074;-1.790;2023-05-07T10:37:07;9.15;;;3.30;;
78406;SDS011;67692;51.074;-1.790;2023-05-07T10:39:35;9.00;;;3.25;;
78406;SDS011;67692;51.074;-1.790;2023-05-07T10:42:09;13.77;;;3.65;;
78406;SDS011;67692;51.074;-1.790;2023-05-07T10:44:36;7.47;;;3.40;;
78406;SDS011;67692;51.074;-1.790;2023-05-07T10:47:05;7.63;;;3.42;;
78406;SDS011;67692;51.074;-1.790;2023-05-07T10:49:34;13.10;;;3.63;;
78406;SDS011;67692;51.074;-1.790;2023-05-07T10:52:14;7.97;;;3.67;;
78406;SDS011;67692;51.074;-1.790;2023-05-07T10:54:42;11.68;;;4.07;;
78406;SDS011;67692;51.074;-1.790;2023-05-07T11:00:02;12.18;;;3.85;;
78406;SDS011;67692;51.074;-1.790;2023-05-07T11:05:33;11.68;;;4.20;;
78406;SDS011;67692;51.074;-1.790;2023-05-07T11:08:00;9.55;;;3.80;;
78406;SDS011;67692;51.074;-1.790;2023-05-07T11:13:16;9.45;;;4.40;;
78406;SDS011;67692;51.074;-1.790;2023-05-07T11:15:43;10.30;;;4.32;;
78406;SDS011;67692;51.074;-1.790;2023-05-07T11:18:13;16.40;;;4.20;;
78406;SDS011;67692;51.074;-1.790;2023-05-07T11:26:12;10.40;;;4.35;;
78406;SDS011;67692;51.074;-1.790;2023-05-07T11:28:40;8.25;;;4.35;;
78406;SDS011;67692;51.074;-1.790;2023-05-07T11:31:08;13.25;;;4.35;;
78406;SDS011;67692;51.074;-1.790;2023-05-07T11:33:37;9.43;;;5.28;;
78406;SDS011;67692;51.074;-1.790;2023-05-07T11:36:04;9.93;;;4.05;;
78406;SDS011;67692;51.074;-1.790;2023-05-07T11:38:35;7.25;;;3.10;;
78406;SDS011;67692;51.074;-1.790;2023-05-07T11:41:02;8.50;;;3.65;;
78406;SDS011;67692;51.074;-1.790;2023-05-07T11:43:30;10.50;;;3.40;;
78406;SDS011;67692;51.074;-1.790;2023-05-07T11:46:04;10.70;;;3.58;;
78406;SDS011;67692;51.074;-1.790;2023-05-07T11:48:31;11.00;;;2.60;;
78406;SDS011;67692;51.074;-1.790;2023-05-07T11:51:01;9.35;;;2.97;;
78406;SDS011;67692;51.074;-1.790;2023-05-07T11:53:35;10.15;;;3.60;;
78406;SDS011;67692;51.074;-1.790;2023-05-07T11:56:05;12.15;;;3.67;;
78406;SDS011;67692;51.074;-1.790;2023-05-07T11:58:32;9.77;;;2.95;;
78406;SDS011;67692;51.074;-1.790;2023-05-07T12:00:59;9.50;;;3.95;;
78406;SDS011;67692;51.074;-1.790;2023-05-07T12:03:25;11.93;;;2.58;;
78406;SDS011;67692;51.074;-1.790;2023-05-07T12:05:52;11.05;;;3.20;;
78406;SDS011;67692;51.074;-1.790;2023-05-07T12:08:21;7.30;;;2.25;;
78406;SDS011;67692;51.074;-1.790;2023-05-07T12:10:48;5.97;;;2.03;;
78406;SDS011;67692;51.074;-1.790;2023-05-07T12:13:16;4.20;;;2.00;;
78406;SDS011;67692;51.074;-1.790;2023-05-07T12:15:43;5.68;;;1.88;;
78406;SDS011;67692;51.074;-1.790;2023-05-07T12:18:10;7.07;;;1.58;;
78406;SDS011;67692;51.074;-1.790;2023-05-07T12:20:37;9.95;;;3.53;;
78406;SDS011;67692;51.074;-1.790;2023-05-07T12:23:05;10.82;;;2.63;;
78406;SDS011;67692;51.074;-1.790;2023-05-07T12:25:33;6.90;;;1.73;;
78406;SDS011;67692;51.074;-1.790;2023-05-07T12:28:00;6.97;;;2.08;;
78406;SDS011;67692;51.074;-1.790;2023-05-07T12:30:28;3.33;;;1.33;;
78406;SDS011;67692;51.074;-1.790;2023-05-07T12:32:55;5.82;;;1.98;;
78406;SDS011;67692;51.074;-1.790;2023-05-07T12:35:28;5.28;;;1.45;;
78406;SDS011;67692;51.074;-1.790;2023-05-07T12:37:54;7.75;;;1.88;;
78406;SDS011;67692;51.074;-1.790;2023-05-07T12:40:21;4.88;;;1.40;;
78406;SDS011;67692;51.074;-1.790;2023-05-07T12:42:52;5.43;;;1.20;;
78406;SDS011;67692;51.074;-1.790;2023-05-07T12:45:20;5.93;;;1.50;;
78406;SDS011;67692;51.074;-1.790;2023-05-07T12:47:47;5.32;;;1.25;;
78406;SDS011;67692;51.074;-1.790;2023-05-07T12:50:14;5.82;;;1.35;;
78406;SDS011;67692;51.074;-1.790;2023-05-07T12:52:42;5.45;;;1.42;;
78406;SDS011;67692;51.074;-1.790;2023-05-07T12:55:12;6.82;;;1.33;;
78406;SDS011;67692;51.074;-1.790;2023-05-07T12:57:41;3.58;;;1.20;;
78406;SDS011;67692;51.074;-1.790;2023-05-07T13:00:10;4.57;;;1.20;;
78406;SDS011;67692;51.074;-1.790;2023-05-07T13:02:38;6.38;;;1.90;;
78406;SDS011;67692;51.074;-1.790;2023-05-07T13:05:07;6.32;;;1.70;;
78406;SDS011;67692;51.074;-1.790;2023-05-07T13:07:34;4.80;;;1.33;;
78406;SDS011;67692;51.074;-1.790;2023-05-07T13:10:01;8.32;;;1.52;;
78406;SDS011;67692;51.074;-1.790;2023-05-07T13:12:28;7.53;;;1.65;;
78406;SDS011;67692;51.074;-1.790;2023-05-07T13:14:55;5.57;;;1.23;;
78406;SDS011;67692;51.074;-1.790;2023-05-07T13:17:23;7.10;;;1.50;;
78406;SDS011;67692;51.074;-1.790;2023-05-07T13:19:50;9.00;;;1.80;;
78406;SDS011;67692;51.074;-1.790;2023-05-07T13:22:16;8.45;;;1.52;;
78406;SDS011;67692;51.074;-1.790;2023-05-07T13:24:43;4.80;;;1.30;;
78406;SDS011;67692;51.074;-1.790;2023-05-07T13:27:09;4.93;;;1.20;;
78406;SDS011;67692;51.074;-1.790;2023-05-07T13:29:36;4.57;;;1.35;;
78406;SDS011;67692;51.074;-1.790;2023-05-07T13:32:03;4.63;;;1.38;;
78406;SDS011;67692;51.074;-1.790;2023-05-07T13:34:31;4.82;;;1.40;;
78406;SDS011;67692;51.074;-1.790;2023-05-07T13:36:58;4.43;;;1.35;;
78406;SDS011;67692;51.074;-1.790;2023-05-07T13:39:25;5.95;;;1.52;;
78406;SDS011;67692;51.074;-1.790;2023-05-07T13:41:51;5.00;;;1.50;;
78406;SDS011;67692;51.074;-1.790;2023-05-07T13:44:18;6.03;;;1.45;;
78406;SDS011;67692;51.074;-1.790;2023-05-07T13:46:44;4.07;;;1.45;;
78406;SDS011;67692;51.074;-1.790;2023-05-07T13:49:11;6.43;;;1.70;;
78406;SDS011;67692;51.074;-1.790;2023-05-07T13:51:39;6.65;;;1.70;;
78406;SDS011;67692;51.074;-1.790;2023-05-07T13:54:05;6.75;;;2.00;;
78406;SDS011;67692;51.074;-1.790;2023-05-07T13:56:32;5.75;;;1.85;;
78406;SDS011;67692;51.074;-1.790;2023-05-07T13:58:59;5.95;;;1.83;;
78406;SDS011;67692;51.074;-1.790;2023-05-07T14:01:25;4.97;;;2.00;;
78406;SDS011;67692;51.074;-1.790;2023-05-07T14:03:52;6.90;;;1.90;;
78406;SDS011;67692;51.074;-1.790;2023-05-07T14:06:19;4.80;;;1.50;;
78406;SDS011;67692;51.074;-1.790;2023-05-07T14:08:48;5.90;;;1.52;;
78406;SDS011;67692;51.074;-1.790;2023-05-07T14:11:15;6.70;;;1.90;;
78406;SDS011;67692;51.074;-1.790;2023-05-07T14:13:41;6.30;;;1.80;;
78406;SDS011;67692;51.074;-1.790;2023-05-07T14:16:08;4.28;;;1.42;;
78406;SDS011;67692;51.074;-1.790;2023-05-07T14:18:35;4.82;;;1.70;;
78406;SDS011;67692;51.074;-1.790;2023-05-07T14:21:02;3.60;;;1.48;;
78406;SDS011;67692;51.074;-1.790;2023-05-07T14:23:28;8.02;;;1.77;;
78406;SDS011;67692;51.074;-1.790;2023-05-07T14:25:56;7.05;;;1.90;;
78406;SDS011;67692;51.074;-1.790;2023-05-07T14:28:23;6.00;;;1.70;;
78406;SDS011;67692;51.074;-1.790;2023-05-07T14:30:50;5.97;;;1.70;;
78406;SDS011;67692;51.074;-1.790;2023-05-07T14:33:16;4.65;;;1.60;;
78406;SDS011;67692;51.074;-1.790;2023-05-07T14:35:43;5.57;;;1.60;;
78406;SDS011;67692;51.074;-1.790;2023-05-07T14:38:13;3.90;;;1.10;;